CYES weather

Edmundston Airport
Edmundston, New Brunswick, Canada

Public forecast

Using degrees Celsius for public forecast. Weather courtesy of forecast.io.

Closest aviation weather report (METAR) to Edmundston Airport

Closest report is Northern Aroostook Regional Airport, 14.1 nm (26.1 km) SSE. Retrieved 2019/10/17 13:53 UTC (24 minutes ago):

KFVE 171353Z AUTO 05022G36KT 10SM -RA SCT034 OVC090 08/01 A2940 RMK AO2 PK WND 06036/1349 SLP957 P0000 T00830006

Closest aviation forecast (TAF) to Edmundston Airport

Closest forecast is Northern Aroostook Regional Airport, 14.1 nm (26.1 km) SSE. Retrieved 2019/10/17 12:24 UTC (2 hours ago):

TAF KFVE 171123Z 1712/1812 06015G22KT 5SM -RA OVC050 FM171400 04015G32KT 3SM RA OVC015 FM171700 04012G22KT 4SM -RA OVC008 FM180000 04007KT 4SM -DZ OVC006 FM180500 32007KT 4SM BR OVC006